Bradford, Iowa
Current Conditions -  °F | °C
As of 11:55 AM on Saturday 25 Oct 2014 (Local Time) from KIFA Reporting Station
Clear Clear  
Wind Chill: 64°   Ceiling: Unl
Heat Index: 64°   Visibility: 10mi
Dew Point: 36°   Wind: 13mph
Humidity: 35%   Direction: 350°N
Pressure: 30.11"   Gusts: NA
Location:  42.63°N, 93.25°W
Report Text: KIFA 251655Z AUTO 35011KT 10SM CLR 18/02 A3011 RMK AO2 T01790020
Loading
Personal Weather Stations






























Interactive Weather Map
Tropical Storm Tracking
New forecast layout! Learn more

10-Day Weather Forecast

Advertisements
Track Severe Weather on mobile